sensor_id;sensor_type;location;lat;lon;timestamp;P1;durP1;ratioP1;P2;durP2;ratioP2
61702;SDS011;47622;47.726;3.298;2024-03-25T00:01:40;8.07;;;4.32;;
61702;SDS011;47622;47.726;3.298;2024-03-25T00:04:06;6.10;;;3.92;;
61702;SDS011;47622;47.726;3.298;2024-03-25T00:06:31;5.47;;;3.50;;
61702;SDS011;47622;47.726;3.298;2024-03-25T00:09:00;5.75;;;3.95;;
61702;SDS011;47622;47.726;3.298;2024-03-25T00:11:28;8.25;;;4.15;;
61702;SDS011;47622;47.726;3.298;2024-03-25T00:13:54;6.68;;;4.07;;
61702;SDS011;47622;47.726;3.298;2024-03-25T00:16:22;6.38;;;4.10;;
61702;SDS011;47622;47.726;3.298;2024-03-25T00:18:53;7.03;;;4.38;;
61702;SDS011;47622;47.726;3.298;2024-03-25T00:21:22;6.47;;;4.18;;
61702;SDS011;47622;47.726;3.298;2024-03-25T00:23:47;7.18;;;4.68;;
61702;SDS011;47622;47.726;3.298;2024-03-25T00:26:13;7.40;;;5.20;;
61702;SDS011;47622;47.726;3.298;2024-03-25T00:28:39;10.07;;;5.68;;
61702;SDS011;47622;47.726;3.298;2024-03-25T00:31:05;8.52;;;5.00;;
61702;SDS011;47622;47.726;3.298;2024-03-25T00:33:31;7.47;;;4.80;;
61702;SDS011;47622;47.726;3.298;2024-03-25T00:35:59;10.82;;;4.70;;
61702;SDS011;47622;47.726;3.298;2024-03-25T00:38:25;6.55;;;4.10;;
61702;SDS011;47622;47.726;3.298;2024-03-25T00:40:50;9.48;;;4.90;;
61702;SDS011;47622;47.726;3.298;2024-03-25T00:43:21;9.48;;;4.65;;
61702;SDS011;47622;47.726;3.298;2024-03-25T00:45:46;4.47;;;3.53;;
61702;SDS011;47622;47.726;3.298;2024-03-25T00:48:14;4.90;;;3.22;;
61702;SDS011;47622;47.726;3.298;2024-03-25T00:50:42;6.68;;;3.20;;
61702;SDS011;47622;47.726;3.298;2024-03-25T00:53:10;5.57;;;3.13;;
61702;SDS011;47622;47.726;3.298;2024-03-25T00:55:38;5.18;;;2.92;;
61702;SDS011;47622;47.726;3.298;2024-03-25T00:58:04;4.47;;;3.22;;
61702;SDS011;47622;47.726;3.298;2024-03-25T01:00:30;4.38;;;3.22;;
61702;SDS011;47622;47.726;3.298;2024-03-25T01:02:56;4.88;;;3.08;;
61702;SDS011;47622;47.726;3.298;2024-03-25T01:05:29;7.82;;;4.32;;
61702;SDS011;47622;47.726;3.298;2024-03-25T01:08:00;7.57;;;3.58;;
61702;SDS011;47622;47.726;3.298;2024-03-25T01:10:28;6.95;;;3.88;;
61702;SDS011;47622;47.726;3.298;2024-03-25T01:12:55;7.20;;;3.10;;
61702;SDS011;47622;47.726;3.298;2024-03-25T01:15:22;3.78;;;2.90;;
61702;SDS011;47622;47.726;3.298;2024-03-25T01:17:48;3.90;;;2.83;;
61702;SDS011;47622;47.726;3.298;2024-03-25T01:20:13;5.15;;;2.67;;
61702;SDS011;47622;47.726;3.298;2024-03-25T01:22:39;3.58;;;2.67;;
61702;SDS011;47622;47.726;3.298;2024-03-25T01:25:05;4.35;;;3.00;;
61702;SDS011;47622;47.726;3.298;2024-03-25T01:27:32;7.53;;;4.32;;
61702;SDS011;47622;47.726;3.298;2024-03-25T01:29:58;6.90;;;4.00;;
61702;SDS011;47622;47.726;3.298;2024-03-25T01:32:23;8.27;;;4.07;;
61702;SDS011;47622;47.726;3.298;2024-03-25T01:34:51;7.60;;;4.28;;
61702;SDS011;47622;47.726;3.298;2024-03-25T01:37:17;4.97;;;3.78;;
61702;SDS011;47622;47.726;3.298;2024-03-25T01:39:54;4.63;;;3.17;;
61702;SDS011;47622;47.726;3.298;2024-03-25T01:42:36;16.73;;;4.53;;
61702;SDS011;47622;47.726;3.298;2024-03-25T01:45:02;6.20;;;3.47;;
61702;SDS011;47622;47.726;3.298;2024-03-25T01:47:28;4.82;;;3.10;;
61702;SDS011;47622;47.726;3.298;2024-03-25T01:49:57;5.43;;;3.60;;
61702;SDS011;47622;47.726;3.298;2024-03-25T01:52:26;5.32;;;3.10;;
61702;SDS011;47622;47.726;3.298;2024-03-25T01:54:58;4.95;;;3.72;;
61702;SDS011;47622;47.726;3.298;2024-03-25T01:57:23;4.53;;;3.05;;
61702;SDS011;47622;47.726;3.298;2024-03-25T01:59:53;4.47;;;3.30;;
61702;SDS011;47622;47.726;3.298;2024-03-25T02:02:19;3.90;;;3.10;;
61702;SDS011;47622;47.726;3.298;2024-03-25T02:04:45;5.95;;;3.60;;
61702;SDS011;47622;47.726;3.298;2024-03-25T02:07:13;5.95;;;3.40;;
61702;SDS011;47622;47.726;3.298;2024-03-25T02:09:42;4.57;;;3.30;;
61702;SDS011;47622;47.726;3.298;2024-03-25T02:12:08;6.55;;;3.60;;
61702;SDS011;47622;47.726;3.298;2024-03-25T02:14:35;8.00;;;4.50;;
61702;SDS011;47622;47.726;3.298;2024-03-25T02:17:01;7.50;;;3.70;;
61702;SDS011;47622;47.726;3.298;2024-03-25T02:19:28;6.60;;;4.25;;
61702;SDS011;47622;47.726;3.298;2024-03-25T02:21:55;6.75;;;4.00;;
61702;SDS011;47622;47.726;3.298;2024-03-25T02:24:21;5.28;;;4.03;;
61702;SDS011;47622;47.726;3.298;2024-03-25T02:26:49;5.43;;;3.55;;
61702;SDS011;47622;47.726;3.298;2024-03-25T02:29:14;6.30;;;3.72;;
61702;SDS011;47622;47.726;3.298;2024-03-25T02:31:40;4.88;;;3.40;;
61702;SDS011;47622;47.726;3.298;2024-03-25T02:34:06;6.90;;;3.95;;
61702;SDS011;47622;47.726;3.298;2024-03-25T02:36:34;3.80;;;3.15;;
61702;SDS011;47622;47.726;3.298;2024-03-25T02:39:04;5.97;;;3.90;;
61702;SDS011;47622;47.726;3.298;2024-03-25T02:41:30;7.57;;;3.50;;
61702;SDS011;47622;47.726;3.298;2024-03-25T02:43:56;4.32;;;2.78;;
61702;SDS011;47622;47.726;3.298;2024-03-25T02:46:22;5.78;;;2.90;;
61702;SDS011;47622;47.726;3.298;2024-03-25T02:48:55;3.38;;;2.63;;
61702;SDS011;47622;47.726;3.298;2024-03-25T02:51:25;4.80;;;2.80;;
61702;SDS011;47622;47.726;3.298;2024-03-25T02:53:53;3.55;;;2.63;;
61702;SDS011;47622;47.726;3.298;2024-03-25T02:56:20;3.92;;;2.70;;
61702;SDS011;47622;47.726;3.298;2024-03-25T02:58:48;4.45;;;2.80;;
61702;SDS011;47622;47.726;3.298;2024-03-25T03:01:15;3.13;;;2.47;;
61702;SDS011;47622;47.726;3.298;2024-03-25T03:03:41;3.83;;;2.65;;
61702;SDS011;47622;47.726;3.298;2024-03-25T03:06:07;6.03;;;3.67;;
61702;SDS011;47622;47.726;3.298;2024-03-25T03:08:32;5.45;;;3.15;;
61702;SDS011;47622;47.726;3.298;2024-03-25T03:10:58;5.15;;;3.20;;
61702;SDS011;47622;47.726;3.298;2024-03-25T03:13:25;5.80;;;3.75;;
61702;SDS011;47622;47.726;3.298;2024-03-25T03:15:50;7.18;;;4.20;;
61702;SDS011;47622;47.726;3.298;2024-03-25T03:18:16;3.25;;;2.90;;
61702;SDS011;47622;47.726;3.298;2024-03-25T03:20:43;4.18;;;2.75;;
61702;SDS011;47622;47.726;3.298;2024-03-25T03:23:10;3.45;;;2.72;;
61702;SDS011;47622;47.726;3.298;2024-03-25T03:25:35;3.85;;;2.55;;
61702;SDS011;47622;47.726;3.298;2024-03-25T03:28:01;4.55;;;2.95;;
61702;SDS011;47622;47.726;3.298;2024-03-25T03:30:27;5.15;;;2.45;;
61702;SDS011;47622;47.726;3.298;2024-03-25T03:32:54;3.10;;;2.65;;
61702;SDS011;47622;47.726;3.298;2024-03-25T03:35:20;3.95;;;2.53;;
61702;SDS011;47622;47.726;3.298;2024-03-25T03:37:47;3.97;;;2.30;;
61702;SDS011;47622;47.726;3.298;2024-03-25T03:40:14;3.55;;;2.88;;
61702;SDS011;47622;47.726;3.298;2024-03-25T03:42:40;4.10;;;3.08;;
61702;SDS011;47622;47.726;3.298;2024-03-25T03:45:12;7.63;;;2.70;;
61702;SDS011;47622;47.726;3.298;2024-03-25T03:47:37;5.63;;;3.05;;
61702;SDS011;47622;47.726;3.298;2024-03-25T03:50:06;4.95;;;3.17;;
61702;SDS011;47622;47.726;3.298;2024-03-25T03:52:32;4.70;;;3.15;;
61702;SDS011;47622;47.726;3.298;2024-03-25T03:54:58;6.90;;;3.50;;
61702;SDS011;47622;47.726;3.298;2024-03-25T03:57:27;6.47;;;3.95;;
61702;SDS011;47622;47.726;3.298;2024-03-25T03:59:54;5.55;;;3.83;;
61702;SDS011;47622;47.726;3.298;2024-03-25T04:02:22;7.53;;;3.90;;
61702;SDS011;47622;47.726;3.298;2024-03-25T04:04:52;5.28;;;3.55;;
61702;SDS011;47622;47.726;3.298;2024-03-25T04:07:17;4.80;;;3.38;;
61702;SDS011;47622;47.726;3.298;2024-03-25T04:09:44;5.68;;;3.63;;
61702;SDS011;47622;47.726;3.298;2024-03-25T04:12:10;6.45;;;3.92;;
61702;SDS011;47622;47.726;3.298;2024-03-25T04:14:37;5.88;;;3.70;;
61702;SDS011;47622;47.726;3.298;2024-03-25T04:17:03;5.72;;;3.83;;
61702;SDS011;47622;47.726;3.298;2024-03-25T04:19:32;7.72;;;3.90;;
61702;SDS011;47622;47.726;3.298;2024-03-25T04:21:58;9.30;;;3.85;;
61702;SDS011;47622;47.726;3.298;2024-03-25T04:24:23;8.82;;;4.30;;
61702;SDS011;47622;47.726;3.298;2024-03-25T04:26:51;7.82;;;4.15;;
61702;SDS011;47622;47.726;3.298;2024-03-25T04:29:17;8.90;;;4.32;;
61702;SDS011;47622;47.726;3.298;2024-03-25T04:31:46;8.88;;;4.00;;
61702;SDS011;47622;47.726;3.298;2024-03-25T04:34:14;7.53;;;3.95;;
61702;SDS011;47622;47.726;3.298;2024-03-25T04:36:46;5.05;;;3.22;;
61702;SDS011;47622;47.726;3.298;2024-03-25T04:39:21;9.45;;;4.00;;
61702;SDS011;47622;47.726;3.298;2024-03-25T04:41:52;6.57;;;3.58;;
61702;SDS011;47622;47.726;3.298;2024-03-25T04:44:17;9.77;;;3.83;;
61702;SDS011;47622;47.726;3.298;2024-03-25T04:46:49;6.70;;;4.38;;
61702;SDS011;47622;47.726;3.298;2024-03-25T04:49:14;8.77;;;3.88;;
61702;SDS011;47622;47.726;3.298;2024-03-25T04:51:40;5.30;;;3.55;;
61702;SDS011;47622;47.726;3.298;2024-03-25T04:54:06;6.50;;;3.00;;
61702;SDS011;47622;47.726;3.298;2024-03-25T04:59:05;7.30;;;3.47;;
61702;SDS011;47622;47.726;3.298;2024-03-25T05:01:31;5.53;;;3.33;;
61702;SDS011;47622;47.726;3.298;2024-03-25T05:03:57;5.18;;;3.63;;
61702;SDS011;47622;47.726;3.298;2024-03-25T05:06:22;5.80;;;3.55;;
61702;SDS011;47622;47.726;3.298;2024-03-25T05:08:48;6.00;;;2.97;;
61702;SDS011;47622;47.726;3.298;2024-03-25T05:11:17;4.43;;;3.38;;
61702;SDS011;47622;47.726;3.298;2024-03-25T05:13:45;4.85;;;3.47;;
61702;SDS011;47622;47.726;3.298;2024-03-25T05:16:32;9.07;;;3.28;;
61702;SDS011;47622;47.726;3.298;2024-03-25T05:18:58;4.55;;;2.95;;
61702;SDS011;47622;47.726;3.298;2024-03-25T05:21:29;5.38;;;3.30;;
61702;SDS011;47622;47.726;3.298;2024-03-25T05:23:55;6.05;;;2.92;;
61702;SDS011;47622;47.726;3.298;2024-03-25T05:26:22;4.95;;;3.47;;
61702;SDS011;47622;47.726;3.298;2024-03-25T05:28:57;7.28;;;4.28;;
61702;SDS011;47622;47.726;3.298;2024-03-25T05:31:29;7.75;;;3.58;;
61702;SDS011;47622;47.726;3.298;2024-03-25T05:33:59;5.95;;;3.55;;
61702;SDS011;47622;47.726;3.298;2024-03-25T05:36:33;6.22;;;3.80;;
61702;SDS011;47622;47.726;3.298;2024-03-25T05:38:59;4.53;;;3.17;;
61702;SDS011;47622;47.726;3.298;2024-03-25T05:41:25;4.65;;;3.53;;
61702;SDS011;47622;47.726;3.298;2024-03-25T05:43:51;5.75;;;3.42;;
61702;SDS011;47622;47.726;3.298;2024-03-25T05:46:20;7.05;;;3.22;;
61702;SDS011;47622;47.726;3.298;2024-03-25T05:48:54;6.22;;;3.90;;
61702;SDS011;47622;47.726;3.298;2024-03-25T05:51:23;5.13;;;3.70;;
61702;SDS011;47622;47.726;3.298;2024-03-25T05:53:52;6.97;;;3.78;;
61702;SDS011;47622;47.726;3.298;2024-03-25T05:56:20;5.35;;;3.35;;
61702;SDS011;47622;47.726;3.298;2024-03-25T05:58:47;6.88;;;3.60;;
61702;SDS011;47622;47.726;3.298;2024-03-25T06:01:16;5.60;;;3.60;;
61702;SDS011;47622;47.726;3.298;2024-03-25T06:03:42;9.05;;;4.18;;
61702;SDS011;47622;47.726;3.298;2024-03-25T06:06:10;6.85;;;3.63;;
61702;SDS011;47622;47.726;3.298;2024-03-25T06:08:39;5.88;;;3.10;;
61702;SDS011;47622;47.726;3.298;2024-03-25T06:11:09;7.63;;;3.33;;
61702;SDS011;47622;47.726;3.298;2024-03-25T06:13:37;7.45;;;3.55;;
61702;SDS011;47622;47.726;3.298;2024-03-25T06:16:03;6.78;;;2.78;;
61702;SDS011;47622;47.726;3.298;2024-03-25T06:18:31;6.05;;;3.17;;
61702;SDS011;47622;47.726;3.298;2024-03-25T06:21:02;6.30;;;2.90;;
61702;SDS011;47622;47.726;3.298;2024-03-25T06:23:28;5.18;;;2.90;;
61702;SDS011;47622;47.726;3.298;2024-03-25T06:25:57;5.28;;;3.10;;
61702;SDS011;47622;47.726;3.298;2024-03-25T06:28:25;3.55;;;2.55;;
61702;SDS011;47622;47.726;3.298;2024-03-25T06:30:51;5.20;;;3.17;;
61702;SDS011;47622;47.726;3.298;2024-03-25T06:33:35;4.40;;;2.60;;
61702;SDS011;47622;47.726;3.298;2024-03-25T06:36:22;4.68;;;2.58;;
61702;SDS011;47622;47.726;3.298;2024-03-25T06:38:48;3.95;;;2.40;;
61702;SDS011;47622;47.726;3.298;2024-03-25T06:41:16;3.90;;;2.72;;
61702;SDS011;47622;47.726;3.298;2024-03-25T06:43:42;5.43;;;2.65;;
61702;SDS011;47622;47.726;3.298;2024-03-25T06:46:07;5.95;;;2.70;;
61702;SDS011;47622;47.726;3.298;2024-03-25T06:48:33;5.43;;;2.78;;
61702;SDS011;47622;47.726;3.298;2024-03-25T06:51:00;6.20;;;2.80;;
61702;SDS011;47622;47.726;3.298;2024-03-25T06:53:28;3.50;;;2.25;;
61702;SDS011;47622;47.726;3.298;2024-03-25T06:55:57;5.10;;;2.50;;
61702;SDS011;47622;47.726;3.298;2024-03-25T06:58:25;6.75;;;4.20;;
61702;SDS011;47622;47.726;3.298;2024-03-25T07:00:53;8.82;;;4.22;;
61702;SDS011;47622;47.726;3.298;2024-03-25T07:03:19;14.27;;;4.68;;
61702;SDS011;47622;47.726;3.298;2024-03-25T07:05:46;8.38;;;4.60;;
61702;SDS011;47622;47.726;3.298;2024-03-25T07:08:13;5.80;;;3.72;;
61702;SDS011;47622;47.726;3.298;2024-03-25T07:10:45;7.88;;;2.95;;
61702;SDS011;47622;47.726;3.298;2024-03-25T07:13:12;5.13;;;2.85;;
61702;SDS011;47622;47.726;3.298;2024-03-25T07:15:39;7.38;;;3.00;;
61702;SDS011;47622;47.726;3.298;2024-03-25T07:18:10;5.22;;;2.67;;
61702;SDS011;47622;47.726;3.298;2024-03-25T07:20:38;7.10;;;3.17;;
61702;SDS011;47622;47.726;3.298;2024-03-25T07:23:04;7.82;;;2.90;;
61702;SDS011;47622;47.726;3.298;2024-03-25T07:25:32;7.13;;;2.70;;
61702;SDS011;47622;47.726;3.298;2024-03-25T07:28:02;6.60;;;2.50;;
61702;SDS011;47622;47.726;3.298;2024-03-25T07:30:28;8.32;;;2.60;;
61702;SDS011;47622;47.726;3.298;2024-03-25T07:33:12;9.18;;;3.15;;
61702;SDS011;47622;47.726;3.298;2024-03-25T07:35:38;4.85;;;2.63;;
61702;SDS011;47622;47.726;3.298;2024-03-25T07:38:06;8.60;;;2.75;;
61702;SDS011;47622;47.726;3.298;2024-03-25T07:40:31;7.15;;;2.70;;
61702;SDS011;47622;47.726;3.298;2024-03-25T07:42:57;7.55;;;3.35;;
61702;SDS011;47622;47.726;3.298;2024-03-25T07:45:23;7.28;;;2.47;;
61702;SDS011;47622;47.726;3.298;2024-03-25T07:47:49;5.57;;;2.38;;
61702;SDS011;47622;47.726;3.298;2024-03-25T07:50:14;5.07;;;2.35;;
61702;SDS011;47622;47.726;3.298;2024-03-25T07:52:40;6.05;;;2.30;;
61702;SDS011;47622;47.726;3.298;2024-03-25T07:55:06;4.00;;;2.05;;
61702;SDS011;47622;47.726;3.298;2024-03-25T07:57:32;4.78;;;2.40;;
61702;SDS011;47622;47.726;3.298;2024-03-25T07:59:58;4.78;;;2.28;;
61702;SDS011;47622;47.726;3.298;2024-03-25T08:02:24;7.43;;;2.20;;
61702;SDS011;47622;47.726;3.298;2024-03-25T08:04:49;3.50;;;1.90;;
61702;SDS011;47622;47.726;3.298;2024-03-25T08:07:15;6.30;;;2.10;;
61702;SDS011;47622;47.726;3.298;2024-03-25T08:09:41;7.05;;;1.90;;
61702;SDS011;47622;47.726;3.298;2024-03-25T08:14:43;5.57;;;1.90;;
61702;SDS011;47622;47.726;3.298;2024-03-25T08:32:36;7.43;;;2.25;;
61702;SDS011;47622;47.726;3.298;2024-03-25T08:35:04;4.35;;;2.10;;
61702;SDS011;47622;47.726;3.298;2024-03-25T08:37:30;5.45;;;1.80;;
61702;SDS011;47622;47.726;3.298;2024-03-25T08:42:31;5.68;;;2.33;;
61702;SDS011;47622;47.726;3.298;2024-03-25T08:48:10;7.93;;;1.90;;
61702;SDS011;47622;47.726;3.298;2024-03-25T08:54:05;4.72;;;1.45;;
61702;SDS011;47622;47.726;3.298;2024-03-25T08:56:30;7.18;;;1.75;;
61702;SDS011;47622;47.726;3.298;2024-03-25T09:02:15;6.63;;;2.03;;
61702;SDS011;47622;47.726;3.298;2024-03-25T09:04:41;6.00;;;1.50;;
61702;SDS011;47622;47.726;3.298;2024-03-25T09:07:06;3.25;;;1.48;;
61702;SDS011;47622;47.726;3.298;2024-03-25T09:09:33;6.53;;;1.80;;
61702;SDS011;47622;47.726;3.298;2024-03-25T09:12:18;5.53;;;1.55;;
61702;SDS011;47622;47.726;3.298;2024-03-25T09:14:44;5.57;;;1.40;;
61702;SDS011;47622;47.726;3.298;2024-03-25T09:17:11;3.55;;;1.60;;
61702;SDS011;47622;47.726;3.298;2024-03-25T09:19:36;3.78;;;1.30;;
61702;SDS011;47622;47.726;3.298;2024-03-25T09:22:02;5.75;;;1.92;;
61702;SDS011;47622;47.726;3.298;2024-03-25T09:24:28;4.22;;;1.52;;
61702;SDS011;47622;47.726;3.298;2024-03-25T09:26:53;4.18;;;1.60;;
61702;SDS011;47622;47.726;3.298;2024-03-25T09:29:19;8.20;;;1.70;;
61702;SDS011;47622;47.726;3.298;2024-03-25T09:31:44;4.38;;;1.52;;
61702;SDS011;47622;47.726;3.298;2024-03-25T09:34:10;3.38;;;1.42;;
61702;SDS011;47622;47.726;3.298;2024-03-25T09:36:36;4.15;;;1.42;;
61702;SDS011;47622;47.726;3.298;2024-03-25T09:39:02;5.88;;;1.60;;
61702;SDS011;47622;47.726;3.298;2024-03-25T09:41:34;3.67;;;1.35;;
61702;SDS011;47622;47.726;3.298;2024-03-25T09:44:06;4.13;;;1.27;;
61702;SDS011;47622;47.726;3.298;2024-03-25T09:51:38;4.18;;;1.60;;
61702;SDS011;47622;47.726;3.298;2024-03-25T09:54:09;3.92;;;1.38;;
61702;SDS011;47622;47.726;3.298;2024-03-25T09:56:38;5.65;;;1.40;;
61702;SDS011;47622;47.726;3.298;2024-03-25T09:59:05;2.72;;;0.85;;
61702;SDS011;47622;47.726;3.298;2024-03-25T10:01:31;2.90;;;1.00;;
61702;SDS011;47622;47.726;3.298;2024-03-25T10:03:57;3.17;;;1.00;;
61702;SDS011;47622;47.726;3.298;2024-03-25T10:06:23;3.80;;;1.08;;
61702;SDS011;47622;47.726;3.298;2024-03-25T10:08:52;4.85;;;1.05;;
61702;SDS011;47622;47.726;3.298;2024-03-25T10:11:19;2.90;;;1.30;;
61702;SDS011;47622;47.726;3.298;2024-03-25T10:13:44;2.38;;;0.90;;
61702;SDS011;47622;47.726;3.298;2024-03-25T10:16:10;3.05;;;1.20;;
61702;SDS011;47622;47.726;3.298;2024-03-25T10:18:36;3.05;;;1.10;;
61702;SDS011;47622;47.726;3.298;2024-03-25T10:21:02;3.33;;;1.00;;
61702;SDS011;47622;47.726;3.298;2024-03-25T10:23:29;2.67;;;1.17;;
61702;SDS011;47622;47.726;3.298;2024-03-25T10:25:55;3.33;;;1.33;;
61702;SDS011;47622;47.726;3.298;2024-03-25T10:28:20;3.15;;;1.63;;
61702;SDS011;47622;47.726;3.298;2024-03-25T10:30:48;2.60;;;1.13;;
61702;SDS011;47622;47.726;3.298;2024-03-25T10:33:24;3.75;;;1.50;;
61702;SDS011;47622;47.726;3.298;2024-03-25T10:35:51;3.75;;;1.20;;
61702;SDS011;47622;47.726;3.298;2024-03-25T10:38:17;5.57;;;1.30;;
61702;SDS011;47622;47.726;3.298;2024-03-25T10:40:45;4.82;;;1.42;;
61702;SDS011;47622;47.726;3.298;2024-03-25T10:43:17;3.65;;;1.45;;
61702;SDS011;47622;47.726;3.298;2024-03-25T10:45:47;2.95;;;1.20;;
61702;SDS011;47622;47.726;3.298;2024-03-25T10:48:34;3.60;;;1.17;;
61702;SDS011;47622;47.726;3.298;2024-03-25T10:51:07;4.47;;;1.38;;
61702;SDS011;47622;47.726;3.298;2024-03-25T10:53:35;7.70;;;1.40;;
61702;SDS011;47622;47.726;3.298;2024-03-25T10:56:03;2.53;;;1.38;;
61702;SDS011;47622;47.726;3.298;2024-03-25T10:58:30;3.97;;;1.52;;
61702;SDS011;47622;47.726;3.298;2024-03-25T11:01:10;2.10;;;1.10;;
61702;SDS011;47622;47.726;3.298;2024-03-25T11:03:36;2.03;;;1.23;;
61702;SDS011;47622;47.726;3.298;2024-03-25T11:06:02;2.90;;;1.42;;
61702;SDS011;47622;47.726;3.298;2024-03-25T11:08:31;3.25;;;1.27;;
61702;SDS011;47622;47.726;3.298;2024-03-25T11:10:57;2.70;;;1.00;;
61702;SDS011;47622;47.726;3.298;2024-03-25T11:13:23;5.20;;;1.33;;
61702;SDS011;47622;47.726;3.298;2024-03-25T11:15:58;3.17;;;1.35;;
61702;SDS011;47622;47.726;3.298;2024-03-25T11:21:08;3.95;;;1.25;;
61702;SDS011;47622;47.726;3.298;2024-03-25T11:23:38;3.95;;;1.83;;
61702;SDS011;47622;47.726;3.298;2024-03-25T11:26:16;3.30;;;1.50;;
61702;SDS011;47622;47.726;3.298;2024-03-25T11:28:52;3.08;;;1.17;;
61702;SDS011;47622;47.726;3.298;2024-03-25T11:31:20;3.72;;;1.30;;
61702;SDS011;47622;47.726;3.298;2024-03-25T11:33:46;3.25;;;1.52;;
61702;SDS011;47622;47.726;3.298;2024-03-25T11:36:12;2.72;;;1.35;;
61702;SDS011;47622;47.726;3.298;2024-03-25T11:38:38;2.97;;;1.70;;
61702;SDS011;47622;47.726;3.298;2024-03-25T11:41:07;2.88;;;1.90;;
61702;SDS011;47622;47.726;3.298;2024-03-25T11:43:35;3.67;;;1.55;;
61702;SDS011;47622;47.726;3.298;2024-03-25T11:46:07;5.00;;;1.85;;
61702;SDS011;47622;47.726;3.298;2024-03-25T11:48:37;5.43;;;1.40;;
61702;SDS011;47622;47.726;3.298;2024-03-25T11:51:03;2.13;;;1.23;;
61702;SDS011;47622;47.726;3.298;2024-03-25T11:53:29;4.55;;;1.50;;
61702;SDS011;47622;47.726;3.298;2024-03-25T11:55:56;4.30;;;1.45;;
61702;SDS011;47622;47.726;3.298;2024-03-25T11:58:24;2.35;;;1.40;;
61702;SDS011;47622;47.726;3.298;2024-03-25T12:03:46;5.57;;;1.27;;
61702;SDS011;47622;47.726;3.298;2024-03-25T12:11:09;3.53;;;1.17;;
61702;SDS011;47622;47.726;3.298;2024-03-25T12:13:50;4.18;;;1.42;;
61702;SDS011;47622;47.726;3.298;2024-03-25T12:16:30;2.67;;;1.55;;
61702;SDS011;47622;47.726;3.298;2024-03-25T12:25:18;4.05;;;1.35;;
61702;SDS011;47622;47.726;3.298;2024-03-25T12:27:47;3.28;;;1.35;;
61702;SDS011;47622;47.726;3.298;2024-03-25T12:36:45;2.73;;;1.17;;
61702;SDS011;47622;47.726;3.298;2024-03-25T12:42:25;1.58;;;1.23;;
61702;SDS011;47622;47.726;3.298;2024-03-25T12:44:56;3.10;;;1.42;;
61702;SDS011;47622;47.726;3.298;2024-03-25T12:50:52;1.65;;;1.02;;
61702;SDS011;47622;47.726;3.298;2024-03-25T12:55:58;3.92;;;1.30;;
61702;SDS011;47622;47.726;3.298;2024-03-25T12:58:25;6.72;;;2.00;;
61702;SDS011;47622;47.726;3.298;2024-03-25T13:03:47;5.57;;;1.33;;
61702;SDS011;47622;47.726;3.298;2024-03-25T13:06:13;3.15;;;1.42;;
61702;SDS011;47622;47.726;3.298;2024-03-25T13:08:38;3.00;;;1.25;;
61702;SDS011;47622;47.726;3.298;2024-03-25T13:11:07;2.42;;;1.35;;
61702;SDS011;47622;47.726;3.298;2024-03-25T13:13:36;2.10;;;1.20;;
61702;SDS011;47622;47.726;3.298;2024-03-25T13:16:01;2.55;;;1.25;;
61702;SDS011;47622;47.726;3.298;2024-03-25T13:18:27;3.03;;;1.20;;
61702;SDS011;47622;47.726;3.298;2024-03-25T13:20:53;2.20;;;1.23;;
61702;SDS011;47622;47.726;3.298;2024-03-25T13:23:18;2.83;;;1.20;;
61702;SDS011;47622;47.726;3.298;2024-03-25T13:25:44;3.47;;;1.42;;
61702;SDS011;47622;47.726;3.298;2024-03-25T13:28:10;3.90;;;1.20;;
61702;SDS011;47622;47.726;3.298;2024-03-25T13:30:35;4.68;;;1.83;;
61702;SDS011;47622;47.726;3.298;2024-03-25T13:33:16;3.80;;;1.55;;
61702;SDS011;47622;47.726;3.298;2024-03-25T13:35:43;5.80;;;1.58;;
61702;SDS011;47622;47.726;3.298;2024-03-25T13:38:11;4.20;;;1.50;;
61702;SDS011;47622;47.726;3.298;2024-03-25T13:40:37;2.13;;;1.50;;
61702;SDS011;47622;47.726;3.298;2024-03-25T13:43:05;2.92;;;1.38;;
61702;SDS011;47622;47.726;3.298;2024-03-25T13:45:45;3.63;;;1.60;;
61702;SDS011;47622;47.726;3.298;2024-03-25T13:51:22;4.45;;;1.48;;
61702;SDS011;47622;47.726;3.298;2024-03-25T13:53:53;2.70;;;1.40;;
61702;SDS011;47622;47.726;3.298;2024-03-25T13:56:26;1.77;;;1.48;;
61702;SDS011;47622;47.726;3.298;2024-03-25T13:59:12;3.63;;;1.60;;
61702;SDS011;47622;47.726;3.298;2024-03-25T14:01:42;4.18;;;1.90;;
61702;SDS011;47622;47.726;3.298;2024-03-25T14:04:07;3.05;;;1.50;;
61702;SDS011;47622;47.726;3.298;2024-03-25T14:06:34;3.53;;;1.40;;
61702;SDS011;47622;47.726;3.298;2024-03-25T14:09:10;4.57;;;1.65;;
61702;SDS011;47622;47.726;3.298;2024-03-25T14:11:40;5.80;;;1.58;;
61702;SDS011;47622;47.726;3.298;2024-03-25T14:14:05;6.28;;;1.70;;
61702;SDS011;47622;47.726;3.298;2024-03-25T14:16:34;10.10;;;1.77;;
61702;SDS011;47622;47.726;3.298;2024-03-25T14:19:03;4.28;;;1.40;;
61702;SDS011;47622;47.726;3.298;2024-03-25T14:21:50;2.75;;;1.20;;
61702;SDS011;47622;47.726;3.298;2024-03-25T14:24:19;4.18;;;1.50;;
61702;SDS011;47622;47.726;3.298;2024-03-25T14:26:54;4.63;;;1.65;;
61702;SDS011;47622;47.726;3.298;2024-03-25T14:29:49;4.63;;;1.45;;
61702;SDS011;47622;47.726;3.298;2024-03-25T14:41:47;7.88;;;1.33;;
61702;SDS011;47622;47.726;3.298;2024-03-25T14:44:15;3.13;;;1.58;;
61702;SDS011;47622;47.726;3.298;2024-03-25T14:49:55;2.75;;;1.40;;
61702;SDS011;47622;47.726;3.298;2024-03-25T14:52:30;3.67;;;1.50;;
61702;SDS011;47622;47.726;3.298;2024-03-25T14:58:24;5.30;;;1.52;;
61702;SDS011;47622;47.726;3.298;2024-03-25T15:00:58;4.15;;;1.63;;
61702;SDS011;47622;47.726;3.298;2024-03-25T15:07:12;1.83;;;1.33;;
61702;SDS011;47622;47.726;3.298;2024-03-25T15:12:43;4.60;;;1.60;;
61702;SDS011;47622;47.726;3.298;2024-03-25T15:15:11;6.60;;;1.30;;
61702;SDS011;47622;47.726;3.298;2024-03-25T15:17:41;2.58;;;1.30;;
61702;SDS011;47622;47.726;3.298;2024-03-25T15:20:28;3.08;;;1.42;;
61702;SDS011;47622;47.726;3.298;2024-03-25T15:22:57;2.55;;;1.30;;
61702;SDS011;47622;47.726;3.298;2024-03-25T15:28:29;8.45;;;1.58;;
61702;SDS011;47622;47.726;3.298;2024-03-25T15:31:01;4.38;;;1.38;;
61702;SDS011;47622;47.726;3.298;2024-03-25T15:40:24;5.05;;;1.63;;
61702;SDS011;47622;47.726;3.298;2024-03-25T15:49:56;3.13;;;1.38;;
61702;SDS011;47622;47.726;3.298;2024-03-25T15:52:22;5.25;;;1.48;;
61702;SDS011;47622;47.726;3.298;2024-03-25T15:54:51;4.10;;;1.33;;
61702;SDS011;47622;47.726;3.298;2024-03-25T16:08:00;5.38;;;1.60;;
61702;SDS011;47622;47.726;3.298;2024-03-25T16:10:47;11.07;;;1.45;;
61702;SDS011;47622;47.726;3.298;2024-03-25T16:22:39;29.08;;;3.25;;
61702;SDS011;47622;47.726;3.298;2024-03-25T16:25:08;7.40;;;1.42;;
61702;SDS011;47622;47.726;3.298;2024-03-25T16:34:01;5.13;;;1.50;;
61702;SDS011;47622;47.726;3.298;2024-03-25T16:39:51;5.20;;;1.58;;
61702;SDS011;47622;47.726;3.298;2024-03-25T16:42:17;6.88;;;2.20;;
61702;SDS011;47622;47.726;3.298;2024-03-25T16:44:43;8.82;;;2.08;;
61702;SDS011;47622;47.726;3.298;2024-03-25T16:58:02;3.13;;;1.70;;
61702;SDS011;47622;47.726;3.298;2024-03-25T17:08:56;5.35;;;1.98;;
61702;SDS011;47622;47.726;3.298;2024-03-25T17:11:22;3.80;;;1.90;;
61702;SDS011;47622;47.726;3.298;2024-03-25T17:13:50;5.85;;;2.00;;
61702;SDS011;47622;47.726;3.298;2024-03-25T17:16:32;4.45;;;1.83;;
61702;SDS011;47622;47.726;3.298;2024-03-25T17:22:35;4.32;;;1.80;;
61702;SDS011;47622;47.726;3.298;2024-03-25T17:24:57;5.65;;;1.75;;
61702;SDS011;47622;47.726;3.298;2024-03-25T17:27:26;3.23;;;1.80;;
61702;SDS011;47622;47.726;3.298;2024-03-25T17:29:55;4.50;;;1.80;;
61702;SDS011;47622;47.726;3.298;2024-03-25T17:32:27;2.63;;;1.58;;
61702;SDS011;47622;47.726;3.298;2024-03-25T17:44:24;3.55;;;1.80;;
61702;SDS011;47622;47.726;3.298;2024-03-25T17:46:53;5.82;;;1.70;;
61702;SDS011;47622;47.726;3.298;2024-03-25T17:52:14;4.32;;;1.90;;
61702;SDS011;47622;47.726;3.298;2024-03-25T17:54:43;2.80;;;1.70;;
61702;SDS011;47622;47.726;3.298;2024-03-25T17:57:17;4.35;;;2.00;;